sensor_id;sensor_type;location;lat;lon;timestamp;pressure;altitude;pressure_sealevel;temperature;humidity
49030;BME280;43337;52.070;4.508;2023-04-28T00:01:10;101482.06;;;9.39;72.95
49030;BME280;43337;52.070;4.508;2023-04-28T00:03:37;101487.88;;;9.50;74.32
49030;BME280;43337;52.070;4.508;2023-04-28T00:06:03;101490.63;;;9.46;74.15
49030;BME280;43337;52.070;4.508;2023-04-28T00:08:29;101487.19;;;9.44;74.36
49030;BME280;43337;52.070;4.508;2023-04-28T00:10:54;101449.09;;;9.27;74.98
49030;BME280;43337;52.070;4.508;2023-04-28T00:13:20;101456.00;;;9.30;74.52
49030;BME280;43337;52.070;4.508;2023-04-28T00:15:45;101446.47;;;9.26;75.26
49030;BME280;43337;52.070;4.508;2023-04-28T00:18:11;101452.63;;;9.26;74.72
49030;BME280;43337;52.070;4.508;2023-04-28T00:20:36;101482.78;;;9.44;74.88
49030;BME280;43337;52.070;4.508;2023-04-28T00:23:02;101453.38;;;9.30;76.02
49030;BME280;43337;52.070;4.508;2023-04-28T00:25:27;101478.44;;;9.43;75.93
49030;BME280;43337;52.070;4.508;2023-04-28T00:27:52;101444.63;;;9.29;76.99
49030;BME280;43337;52.070;4.508;2023-04-28T00:30:18;101451.50;;;9.35;77.70
49030;BME280;43337;52.070;4.508;2023-04-28T00:32:43;101424.59;;;9.25;77.95
49030;BME280;43337;52.070;4.508;2023-04-28T00:35:09;101440.94;;;9.37;78.27
49030;BME280;43337;52.070;4.508;2023-04-28T00:37:38;101434.03;;;9.34;78.91
49030;BME280;43337;52.070;4.508;2023-04-28T00:40:03;101426.22;;;9.31;78.47
49030;BME280;43337;52.070;4.508;2023-04-28T00:42:29;101433.25;;;9.31;78.97
49030;BME280;43337;52.070;4.508;2023-04-28T00:44:55;101430.56;;;9.32;78.87
49030;BME280;43337;52.070;4.508;2023-04-28T00:47:21;101420.25;;;9.24;79.08
49030;BME280;43337;52.070;4.508;2023-04-28T00:49:46;101421.91;;;9.28;79.54
49030;BME280;43337;52.070;4.508;2023-04-28T00:52:14;101427.16;;;9.28;79.24
49030;BME280;43337;52.070;4.508;2023-04-28T00:54:39;101423.69;;;9.28;79.76
49030;BME280;43337;52.070;4.508;2023-04-28T00:57:07;101423.69;;;9.28;80.05
49030;BME280;43337;52.070;4.508;2023-04-28T00:59:34;101415.78;;;9.28;80.21
49030;BME280;43337;52.070;4.508;2023-04-28T01:05:22;101396.69;;;9.21;80.63
49030;BME280;43337;52.070;4.508;2023-04-28T01:07:48;101391.53;;;9.18;80.66
49030;BME280;43337;52.070;4.508;2023-04-28T01:10:13;101387.25;;;9.16;80.65
49030;BME280;43337;52.070;4.508;2023-04-28T01:12:38;101393.28;;;9.19;81.44
49030;BME280;43337;52.070;4.508;2023-04-28T01:15:05;101391.50;;;9.20;81.69
49030;BME280;43337;52.070;4.508;2023-04-28T01:17:30;101384.63;;;9.14;81.55
49030;BME280;43337;52.070;4.508;2023-04-28T01:19:56;101379.34;;;9.16;81.59
49030;BME280;43337;52.070;4.508;2023-04-28T01:22:21;101384.56;;;9.17;82.37
49030;BME280;43337;52.070;4.508;2023-04-28T01:24:46;101385.41;;;9.18;82.33
49030;BME280;43337;52.070;4.508;2023-04-28T01:27:12;101375.81;;;9.17;82.22
49030;BME280;43337;52.070;4.508;2023-04-28T01:29:37;101373.28;;;9.14;82.51
49030;BME280;43337;52.070;4.508;2023-04-28T01:32:02;101374.09;;;9.16;82.21
49030;BME280;43337;52.070;4.508;2023-04-28T01:34:28;101362.09;;;9.07;82.66
49030;BME280;43337;52.070;4.508;2023-04-28T01:36:53;101358.56;;;9.08;82.38
49030;BME280;43337;52.070;4.508;2023-04-28T01:39:19;101363.72;;;9.11;82.78
49030;BME280;43337;52.070;4.508;2023-04-28T01:41:44;101366.38;;;9.10;83.25
49030;BME280;43337;52.070;4.508;2023-04-28T01:44:10;101344.59;;;9.06;82.99
49030;BME280;43337;52.070;4.508;2023-04-28T01:46:37;101349.91;;;9.04;83.26
49030;BME280;43337;52.070;4.508;2023-04-28T01:49:02;101315.25;;;8.92;83.43
49030;BME280;43337;52.070;4.508;2023-04-28T01:51:27;101339.38;;;9.04;82.97
49030;BME280;43337;52.070;4.508;2023-04-28T01:53:53;101348.91;;;9.09;83.15
49030;BME280;43337;52.070;4.508;2023-04-28T01:56:18;101341.25;;;9.01;82.97
49030;BME280;43337;52.070;4.508;2023-04-28T01:58:43;101329.81;;;9.02;82.78
49030;BME280;43337;52.070;4.508;2023-04-28T02:01:09;101341.03;;;9.09;82.86
49030;BME280;43337;52.070;4.508;2023-04-28T02:03:34;101327.06;;;9.07;82.77
49030;BME280;43337;52.070;4.508;2023-04-28T02:05:59;101308.88;;;8.99;83.18
49030;BME280;43337;52.070;4.508;2023-04-28T02:08:25;101318.41;;;9.03;83.23
49030;BME280;43337;52.070;4.508;2023-04-28T02:10:50;101298.38;;;8.99;83.24
49030;BME280;43337;52.070;4.508;2023-04-28T02:13:15;101280.22;;;8.91;83.54
49030;BME280;43337;52.070;4.508;2023-04-28T02:15:41;101291.47;;;8.96;83.15
49030;BME280;43337;52.070;4.508;2023-04-28T02:18:07;101294.03;;;8.98;83.27
49030;BME280;43337;52.070;4.508;2023-04-28T02:20:33;101297.59;;;8.97;83.05
49030;BME280;43337;52.070;4.508;2023-04-28T02:22:58;101293.97;;;9.01;83.44
49030;BME280;43337;52.070;4.508;2023-04-28T02:25:23;101283.72;;;8.92;83.00
49030;BME280;43337;52.070;4.508;2023-04-28T02:27:49;101302.75;;;9.00;83.35
49030;BME280;43337;52.070;4.508;2023-04-28T02:30:14;101295.75;;;8.99;83.38
49030;BME280;43337;52.070;4.508;2023-04-28T02:32:40;101287.16;;;8.94;83.38
49030;BME280;43337;52.070;4.508;2023-04-28T02:35:06;101273.22;;;8.92;83.31
49030;BME280;43337;52.070;4.508;2023-04-28T02:37:31;101280.97;;;8.96;83.31
49030;BME280;43337;52.070;4.508;2023-04-28T02:39:56;101268.94;;;8.88;83.34
49030;BME280;43337;52.070;4.508;2023-04-28T02:42:22;101284.47;;;8.95;83.66
49030;BME280;43337;52.070;4.508;2023-04-28T02:44:47;101285.47;;;8.91;83.74
49030;BME280;43337;52.070;4.508;2023-04-28T02:47:12;101270.75;;;8.86;83.46
49030;BME280;43337;52.070;4.508;2023-04-28T02:49:38;101278.50;;;8.90;83.34
49030;BME280;43337;52.070;4.508;2023-04-28T02:52:03;101276.66;;;8.94;83.82
49030;BME280;43337;52.070;4.508;2023-04-28T02:54:29;101276.75;;;8.91;83.75
49030;BME280;43337;52.070;4.508;2023-04-28T02:56:55;101254.31;;;8.79;83.88
49030;BME280;43337;52.070;4.508;2023-04-28T02:59:22;101264.56;;;8.88;83.83
49030;BME280;43337;52.070;4.508;2023-04-28T03:01:47;101270.56;;;8.93;83.95
49030;BME280;43337;52.070;4.508;2023-04-28T03:04:13;101253.19;;;8.88;84.14
49030;BME280;43337;52.070;4.508;2023-04-28T03:06:39;101261.91;;;8.90;83.50
49030;BME280;43337;52.070;4.508;2023-04-28T03:09:05;101252.16;;;8.93;84.49
49030;BME280;43337;52.070;4.508;2023-04-28T03:11:31;101266.16;;;8.94;84.39
49030;BME280;43337;52.070;4.508;2023-04-28T03:13:56;101254.94;;;8.89;84.69
49030;BME280;43337;52.070;4.508;2023-04-28T03:16:21;101249.63;;;8.90;84.61
49030;BME280;43337;52.070;4.508;2023-04-28T03:18:47;101241.75;;;8.90;84.49
49030;BME280;43337;52.070;4.508;2023-04-28T03:21:12;101245.19;;;8.92;85.04
49030;BME280;43337;52.070;4.508;2023-04-28T03:23:37;101237.41;;;8.89;84.71
49030;BME280;43337;52.070;4.508;2023-04-28T03:26:03;101229.63;;;8.86;85.47
49030;BME280;43337;52.070;4.508;2023-04-28T03:28:28;101223.44;;;8.89;85.17
49030;BME280;43337;52.070;4.508;2023-04-28T03:30:54;101226.84;;;8.91;85.31
49030;BME280;43337;52.070;4.508;2023-04-28T03:33:19;101228.69;;;8.87;85.64
49030;BME280;43337;52.070;4.508;2023-04-28T03:35:44;101228.69;;;8.89;85.92
49030;BME280;43337;52.070;4.508;2023-04-28T03:38:10;101213.00;;;8.86;86.10
49030;BME280;43337;52.070;4.508;2023-04-28T03:43:51;101219.97;;;8.87;86.80
49030;BME280;43337;52.070;4.508;2023-04-28T03:46:17;101221.97;;;8.78;87.08
49030;BME280;43337;52.070;4.508;2023-04-28T03:48:42;101214.00;;;8.82;87.10
49030;BME280;43337;52.070;4.508;2023-04-28T03:51:08;101208.84;;;8.78;87.34
49030;BME280;43337;52.070;4.508;2023-04-28T03:53:33;101193.94;;;8.79;87.69
49030;BME280;43337;52.070;4.508;2023-04-28T03:55:58;101186.81;;;8.84;87.85
49030;BME280;43337;52.070;4.508;2023-04-28T03:58:24;101167.88;;;8.73;88.84
49030;BME280;43337;52.070;4.508;2023-04-28T04:00:49;101179.03;;;8.79;88.58
49030;BME280;43337;52.070;4.508;2023-04-28T04:03:15;101173.75;;;8.81;89.58
49030;BME280;43337;52.070;4.508;2023-04-28T04:05:40;101174.56;;;8.83;90.32
49030;BME280;43337;52.070;4.508;2023-04-28T04:08:05;101172.91;;;8.80;90.77
49030;BME280;43337;52.070;4.508;2023-04-28T04:10:31;101157.28;;;8.76;91.46
49030;BME280;43337;52.070;4.508;2023-04-28T04:12:56;101173.00;;;8.77;90.75
49030;BME280;43337;52.070;4.508;2023-04-28T04:15:21;101156.38;;;8.77;90.90
49030;BME280;43337;52.070;4.508;2023-04-28T04:17:47;101166.66;;;8.85;91.09
49030;BME280;43337;52.070;4.508;2023-04-28T04:20:12;101163.28;;;8.79;91.68
49030;BME280;43337;52.070;4.508;2023-04-28T04:22:37;101161.41;;;8.85;91.79
49030;BME280;43337;52.070;4.508;2023-04-28T04:25:03;101172.75;;;8.85;91.80
49030;BME280;43337;52.070;4.508;2023-04-28T04:27:28;101171.84;;;8.86;90.93
49030;BME280;43337;52.070;4.508;2023-04-28T04:29:54;101183.13;;;8.90;92.15
49030;BME280;43337;52.070;4.508;2023-04-28T04:32:19;101191.84;;;8.90;93.20
49030;BME280;43337;52.070;4.508;2023-04-28T04:34:44;101179.88;;;8.82;92.84
49030;BME280;43337;52.070;4.508;2023-04-28T04:37:10;101188.38;;;8.90;93.63
49030;BME280;43337;52.070;4.508;2023-04-28T04:39:35;101185.97;;;8.82;94.87
49030;BME280;43337;52.070;4.508;2023-04-28T04:42:01;101206.03;;;8.85;96.83
49030;BME280;43337;52.070;4.508;2023-04-28T04:44:27;101183.63;;;8.73;96.83
49030;BME280;43337;52.070;4.508;2023-04-28T04:46:52;101197.63;;;8.73;97.61
49030;BME280;43337;52.070;4.508;2023-04-28T04:49:17;101188.19;;;8.66;98.95
49030;BME280;43337;52.070;4.508;2023-04-28T04:51:43;101186.47;;;8.65;98.07
49030;BME280;43337;52.070;4.508;2023-04-28T04:54:08;101194.44;;;8.62;100.00
49030;BME280;43337;52.070;4.508;2023-04-28T04:56:33;101179.03;;;8.50;100.00
49030;BME280;43337;52.070;4.508;2023-04-28T04:58:59;101182.47;;;8.52;100.00
49030;BME280;43337;52.070;4.508;2023-04-28T05:01:24;101170.41;;;8.46;100.00
49030;BME280;43337;52.070;4.508;2023-04-28T05:03:52;101166.03;;;8.45;100.00
49030;BME280;43337;52.070;4.508;2023-04-28T05:06:17;101156.44;;;8.46;100.00
49030;BME280;43337;52.070;4.508;2023-04-28T05:08:42;101148.63;;;8.43;100.00
49030;BME280;43337;52.070;4.508;2023-04-28T05:11:08;101153.81;;;8.44;100.00
49030;BME280;43337;52.070;4.508;2023-04-28T05:13:33;101150.41;;;8.42;100.00
49030;BME280;43337;52.070;4.508;2023-04-28T05:15:58;101142.38;;;8.47;100.00
49030;BME280;43337;52.070;4.508;2023-04-28T05:18:24;101144.16;;;8.46;100.00
49030;BME280;43337;52.070;4.508;2023-04-28T05:20:49;101148.50;;;8.47;100.00
49030;BME280;43337;52.070;4.508;2023-04-28T05:23:15;101136.31;;;8.45;100.00
49030;BME280;43337;52.070;4.508;2023-04-28T05:25:40;101134.94;;;8.31;100.00
49030;BME280;43337;52.070;4.508;2023-04-28T05:28:08;101133.06;;;8.35;100.00
49030;BME280;43337;52.070;4.508;2023-04-28T05:30:34;101127.78;;;8.37;100.00
49030;BME280;43337;52.070;4.508;2023-04-28T05:32:59;101125.34;;;8.30;100.00
49030;BME280;43337;52.070;4.508;2023-04-28T05:35:25;101123.53;;;8.32;100.00
49030;BME280;43337;52.070;4.508;2023-04-28T05:37:51;101112.38;;;8.24;100.00
49030;BME280;43337;52.070;4.508;2023-04-28T05:40:16;101091.78;;;8.11;100.00
49030;BME280;43337;52.070;4.508;2023-04-28T05:42:42;101117.84;;;8.17;100.00
49030;BME280;43337;52.070;4.508;2023-04-28T05:45:08;101126.56;;;8.19;100.00
49030;BME280;43337;52.070;4.508;2023-04-28T05:47:33;101115.16;;;8.20;100.00
49030;BME280;43337;52.070;4.508;2023-04-28T05:49:59;101130.81;;;8.21;100.00
49030;BME280;43337;52.070;4.508;2023-04-28T05:52:24;101132.66;;;8.19;100.00
49030;BME280;43337;52.070;4.508;2023-04-28T05:54:50;101139.59;;;8.20;100.00
49030;BME280;43337;52.070;4.508;2023-04-28T05:57:15;101130.13;;;8.15;100.00
49030;BME280;43337;52.070;4.508;2023-04-28T05:59:40;101143.81;;;8.26;100.00
49030;BME280;43337;52.070;4.508;2023-04-28T06:02:06;101133.31;;;8.26;100.00
49030;BME280;43337;52.070;4.508;2023-04-28T06:04:31;101114.03;;;8.28;100.00
49030;BME280;43337;52.070;4.508;2023-04-28T06:06:57;101130.47;;;8.33;100.00
49030;BME280;43337;52.070;4.508;2023-04-28T06:09:22;101133.91;;;8.37;100.00
49030;BME280;43337;52.070;4.508;2023-04-28T06:11:47;101129.44;;;8.41;100.00
49030;BME280;43337;52.070;4.508;2023-04-28T06:14:13;101121.56;;;8.41;100.00
49030;BME280;43337;52.070;4.508;2023-04-28T06:16:39;101122.41;;;8.43;100.00
49030;BME280;43337;52.070;4.508;2023-04-28T06:19:05;101134.31;;;8.53;100.00
49030;BME280;43337;52.070;4.508;2023-04-28T06:21:30;101136.00;;;8.55;100.00
49030;BME280;43337;52.070;4.508;2023-04-28T06:23:56;101131.44;;;8.62;100.00
49030;BME280;43337;52.070;4.508;2023-04-28T06:26:22;101124.50;;;8.61;100.00
49030;BME280;43337;52.070;4.508;2023-04-28T06:28:47;101117.41;;;8.63;100.00
49030;BME280;43337;52.070;4.508;2023-04-28T06:31:13;101098.31;;;8.58;100.00
49030;BME280;43337;52.070;4.508;2023-04-28T06:33:38;101093.88;;;8.60;100.00
49030;BME280;43337;52.070;4.508;2023-04-28T06:36:03;101098.28;;;8.60;100.00
49030;BME280;43337;52.070;4.508;2023-04-28T06:38:29;101083.47;;;8.57;100.00
49030;BME280;43337;52.070;4.508;2023-04-28T06:40:54;101099.91;;;8.64;100.00
49030;BME280;43337;52.070;4.508;2023-04-28T06:43:20;101083.38;;;8.60;100.00
49030;BME280;43337;52.070;4.508;2023-04-28T06:45:46;101095.19;;;8.75;100.00
49030;BME280;43337;52.070;4.508;2023-04-28T06:48:11;101101.03;;;8.83;100.00
49030;BME280;43337;52.070;4.508;2023-04-28T06:50:36;101111.06;;;8.98;100.00
49030;BME280;43337;52.070;4.508;2023-04-28T06:53:02;101113.44;;;9.08;100.00
49030;BME280;43337;52.070;4.508;2023-04-28T06:55:28;101112.34;;;9.13;100.00
49030;BME280;43337;52.070;4.508;2023-04-28T06:57:53;101105.44;;;9.11;100.00
49030;BME280;43337;52.070;4.508;2023-04-28T07:00:19;101112.28;;;9.16;100.00
49030;BME280;43337;52.070;4.508;2023-04-28T07:02:45;101096.56;;;9.15;100.00
49030;BME280;43337;52.070;4.508;2023-04-28T07:05:10;101114.81;;;9.19;100.00
49030;BME280;43337;52.070;4.508;2023-04-28T07:07:36;101106.94;;;9.18;100.00
49030;BME280;43337;52.070;4.508;2023-04-28T07:10:03;101102.78;;;9.12;100.00
49030;BME280;43337;52.070;4.508;2023-04-28T07:12:28;101119.22;;;9.17;100.00
49030;BME280;43337;52.070;4.508;2023-04-28T07:14:54;101118.44;;;9.15;100.00
49030;BME280;43337;52.070;4.508;2023-04-28T07:17:20;101120.84;;;9.21;100.00
49030;BME280;43337;52.070;4.508;2023-04-28T07:19:45;101121.69;;;9.22;100.00
49030;BME280;43337;52.070;4.508;2023-04-28T07:22:10;101113.78;;;9.23;100.00
49030;BME280;43337;52.070;4.508;2023-04-28T07:24:36;101122.44;;;9.27;100.00
49030;BME280;43337;52.070;4.508;2023-04-28T07:27:01;101124.06;;;9.31;100.00
49030;BME280;43337;52.070;4.508;2023-04-28T07:29:28;101117.78;;;9.35;100.00
49030;BME280;43337;52.070;4.508;2023-04-28T07:31:58;101118.72;;;9.33;100.00
49030;BME280;43337;52.070;4.508;2023-04-28T07:34:23;101119.34;;;9.41;100.00
49030;BME280;43337;52.070;4.508;2023-04-28T07:36:48;101114.91;;;9.43;100.00
49030;BME280;43337;52.070;4.508;2023-04-28T07:39:14;101118.13;;;9.51;100.00
49030;BME280;43337;52.070;4.508;2023-04-28T07:41:40;101115.16;;;9.62;100.00
49030;BME280;43337;52.070;4.508;2023-04-28T07:44:05;101101.84;;;9.66;100.00
49030;BME280;43337;52.070;4.508;2023-04-28T07:46:32;101118.75;;;9.84;100.00
49030;BME280;43337;52.070;4.508;2023-04-28T07:48:58;101115.69;;;9.96;100.00
49030;BME280;43337;52.070;4.508;2023-04-28T07:51:23;101082.53;;;9.92;100.00
49030;BME280;43337;52.070;4.508;2023-04-28T07:53:48;101093.06;;;10.16;100.00
49030;BME280;43337;52.070;4.508;2023-04-28T07:56:14;101097.06;;;10.27;100.00
49030;BME280;43337;52.070;4.508;2023-04-28T07:58:40;101102.06;;;10.34;100.00
49030;BME280;43337;52.070;4.508;2023-04-28T08:01:06;101107.19;;;10.38;100.00
49030;BME280;43337;52.070;4.508;2023-04-28T08:03:32;101107.94;;;10.42;100.00
49030;BME280;43337;52.070;4.508;2023-04-28T08:05:57;101107.69;;;10.48;100.00
49030;BME280;43337;52.070;4.508;2023-04-28T08:08:26;101115.38;;;10.54;100.00
49030;BME280;43337;52.070;4.508;2023-04-28T08:10:51;101116.97;;;10.58;100.00
49030;BME280;43337;52.070;4.508;2023-04-28T08:13:17;101101.06;;;10.61;100.00
49030;BME280;43337;52.070;4.508;2023-04-28T08:15:42;101107.84;;;10.67;100.00
49030;BME280;43337;52.070;4.508;2023-04-28T08:18:12;101098.97;;;10.69;100.00
49030;BME280;43337;52.070;4.508;2023-04-28T08:20:37;101091.84;;;10.71;100.00
49030;BME280;43337;52.070;4.508;2023-04-28T08:23:03;101101.97;;;10.82;100.00
49030;BME280;43337;52.070;4.508;2023-04-28T08:25:28;101099.16;;;10.87;100.00
49030;BME280;43337;52.070;4.508;2023-04-28T08:27:53;101103.28;;;10.94;100.00
49030;BME280;43337;52.070;4.508;2023-04-28T08:30:20;101097.88;;;10.97;100.00
49030;BME280;43337;52.070;4.508;2023-04-28T08:32:45;101091.34;;;11.07;100.00
49030;BME280;43337;52.070;4.508;2023-04-28T08:35:11;101090.16;;;11.14;100.00
49030;BME280;43337;52.070;4.508;2023-04-28T08:37:37;101094.97;;;11.25;100.00
49030;BME280;43337;52.070;4.508;2023-04-28T08:40:03;101093.09;;;11.29;100.00
49030;BME280;43337;52.070;4.508;2023-04-28T08:42:34;101096.38;;;11.34;100.00
49030;BME280;43337;52.070;4.508;2023-04-28T08:45:02;101073.56;;;11.33;100.00
49030;BME280;43337;52.070;4.508;2023-04-28T08:47:38;101092.56;;;11.41;100.00
49030;BME280;43337;52.070;4.508;2023-04-28T08:50:07;101097.41;;;11.52;100.00
49030;BME280;43337;52.070;4.508;2023-04-28T08:52:34;101091.78;;;11.59;100.00
49030;BME280;43337;52.070;4.508;2023-04-28T08:55:04;101086.47;;;11.61;100.00
49030;BME280;43337;52.070;4.508;2023-04-28T08:57:35;101089.69;;;11.67;100.00
49030;BME280;43337;52.070;4.508;2023-04-28T09:00:02;101085.25;;;11.68;100.00
49030;BME280;43337;52.070;4.508;2023-04-28T09:02:28;101091.41;;;11.68;100.00
49030;BME280;43337;52.070;4.508;2023-04-28T09:04:53;101076.56;;;11.66;100.00
49030;BME280;43337;52.070;4.508;2023-04-28T09:07:18;101080.78;;;11.70;100.00
49030;BME280;43337;52.070;4.508;2023-04-28T09:09:44;101071.69;;;11.77;100.00
49030;BME280;43337;52.070;4.508;2023-04-28T09:12:09;101085.34;;;11.87;100.00
49030;BME280;43337;52.070;4.508;2023-04-28T09:14:36;101080.41;;;12.00;100.00
49030;BME280;43337;52.070;4.508;2023-04-28T09:17:09;101070.50;;;12.05;100.00
49030;BME280;43337;52.070;4.508;2023-04-28T09:19:36;101083.34;;;12.12;100.00
49030;BME280;43337;52.070;4.508;2023-04-28T09:22:02;101067.53;;;12.12;100.00
49030;BME280;43337;52.070;4.508;2023-04-28T09:27:00;101076.53;;;12.27;100.00
49030;BME280;43337;52.070;4.508;2023-04-28T09:29:26;101071.88;;;12.32;100.00
49030;BME280;43337;52.070;4.508;2023-04-28T09:31:52;101061.94;;;12.37;100.00
49030;BME280;43337;52.070;4.508;2023-04-28T09:34:21;101055.25;;;12.49;100.00
49030;BME280;43337;52.070;4.508;2023-04-28T09:36:47;101057.53;;;12.57;100.00
49030;BME280;43337;52.070;4.508;2023-04-28T09:39:12;101056.41;;;12.62;100.00
49030;BME280;43337;52.070;4.508;2023-04-28T09:41:39;101057.88;;;12.68;100.00
49030;BME280;43337;52.070;4.508;2023-04-28T09:44:18;101070.88;;;12.73;100.00
49030;BME280;43337;52.070;4.508;2023-04-28T09:46:46;101064.72;;;12.72;100.00
49030;BME280;43337;52.070;4.508;2023-04-28T09:49:12;101067.00;;;12.80;100.00
49030;BME280;43337;52.070;4.508;2023-04-28T09:51:38;101059.06;;;12.80;100.00
49030;BME280;43337;52.070;4.508;2023-04-28T09:54:04;101069.13;;;12.90;100.00
49030;BME280;43337;52.070;4.508;2023-04-28T09:56:32;101070.88;;;12.91;100.00
49030;BME280;43337;52.070;4.508;2023-04-28T09:59:00;101074.34;;;12.92;100.00
49030;BME280;43337;52.070;4.508;2023-04-28T10:01:52;101072.63;;;12.91;100.00
49030;BME280;43337;52.070;4.508;2023-04-28T10:04:17;101078.72;;;12.93;100.00
49030;BME280;43337;52.070;4.508;2023-04-28T10:06:43;101082.13;;;12.95;100.00
49030;BME280;43337;52.070;4.508;2023-04-28T10:09:09;101083.06;;;12.94;100.00
49030;BME280;43337;52.070;4.508;2023-04-28T10:11:36;101072.63;;;12.91;100.00
49030;BME280;43337;52.070;4.508;2023-04-28T10:14:03;101068.50;;;12.85;100.00
49030;BME280;43337;52.070;4.508;2023-04-28T10:16:30;101079.47;;;12.95;100.00
49030;BME280;43337;52.070;4.508;2023-04-28T10:18:56;101083.00;;;12.95;100.00
49030;BME280;43337;52.070;4.508;2023-04-28T10:21:23;101080.56;;;12.91;100.00
49030;BME280;43337;52.070;4.508;2023-04-28T10:24:07;101080.50;;;12.92;100.00
49030;BME280;43337;52.070;4.508;2023-04-28T10:29:23;101082.56;;;12.86;100.00
49030;BME280;43337;52.070;4.508;2023-04-28T10:32:18;101086.00;;;12.88;100.00
49030;BME280;43337;52.070;4.508;2023-04-28T10:34:43;101087.84;;;12.86;100.00
49030;BME280;43337;52.070;4.508;2023-04-28T10:37:09;101094.13;;;12.83;100.00
49030;BME280;43337;52.070;4.508;2023-04-28T10:39:35;101100.97;;;12.87;100.00
49030;BME280;43337;52.070;4.508;2023-04-28T10:42:00;101096.63;;;12.86;100.00
49030;BME280;43337;52.070;4.508;2023-04-28T10:47:02;101098.66;;;12.81;100.00
49030;BME280;43337;52.070;4.508;2023-04-28T10:55:28;101111.50;;;12.70;100.00
49030;BME280;43337;52.070;4.508;2023-04-28T11:00:42;101111.66;;;12.67;100.00
49030;BME280;43337;52.070;4.508;2023-04-28T11:03:07;101109.09;;;12.65;100.00
49030;BME280;43337;52.070;4.508;2023-04-28T11:05:33;101097.94;;;12.59;100.00
49030;BME280;43337;52.070;4.508;2023-04-28T11:13:35;101108.59;;;12.57;100.00
49030;BME280;43337;52.070;4.508;2023-04-28T11:16:04;101111.28;;;12.56;100.00
49030;BME280;43337;52.070;4.508;2023-04-28T11:21:18;101101.16;;;12.46;100.00
49030;BME280;43337;52.070;4.508;2023-04-28T11:23:44;101098.66;;;12.43;100.00
49030;BME280;43337;52.070;4.508;2023-04-28T11:26:10;101109.13;;;12.45;100.00
49030;BME280;43337;52.070;4.508;2023-04-28T11:28:37;101122.41;;;12.43;100.00
49030;BME280;43337;52.070;4.508;2023-04-28T11:31:14;101113.78;;;12.40;100.00
49030;BME280;43337;52.070;4.508;2023-04-28T11:33:59;101115.91;;;12.32;100.00
49030;BME280;43337;52.070;4.508;2023-04-28T11:36:37;101115.84;;;12.33;100.00
49030;BME280;43337;52.070;4.508;2023-04-28T11:39:05;101112.28;;;12.34;100.00
49030;BME280;43337;52.070;4.508;2023-04-28T11:41:33;101117.69;;;12.31;100.00
49030;BME280;43337;52.070;4.508;2023-04-28T11:43:59;101126.47;;;12.32;100.00
49030;BME280;43337;52.070;4.508;2023-04-28T11:46:25;101121.28;;;12.30;100.00
49030;BME280;43337;52.070;4.508;2023-04-28T11:49:04;101127.06;;;12.38;100.00
49030;BME280;43337;52.070;4.508;2023-04-28T11:51:34;101123.56;;;12.38;100.00
49030;BME280;43337;52.070;4.508;2023-04-28T11:54:00;101119.69;;;12.45;100.00
49030;BME280;43337;52.070;4.508;2023-04-28T11:56:27;101115.09;;;12.50;100.00
49030;BME280;43337;52.070;4.508;2023-04-28T11:59:06;101134.06;;;12.58;100.00
49030;BME280;43337;52.070;4.508;2023-04-28T12:01:34;101132.28;;;12.59;100.00
49030;BME280;43337;52.070;4.508;2023-04-28T12:04:02;101121.84;;;12.56;100.00
49030;BME280;43337;52.070;4.508;2023-04-28T12:06:28;101136.50;;;12.63;100.00
49030;BME280;43337;52.070;4.508;2023-04-28T12:08:54;101131.94;;;12.66;100.00
49030;BME280;43337;52.070;4.508;2023-04-28T12:11:19;101129.56;;;12.60;100.00
49030;BME280;43337;52.070;4.508;2023-04-28T12:14:02;101134.78;;;12.62;100.00
49030;BME280;43337;52.070;4.508;2023-04-28T12:16:41;101129.56;;;12.60;100.00
49030;BME280;43337;52.070;4.508;2023-04-28T12:19:09;101146.97;;;12.64;100.00
49030;BME280;43337;52.070;4.508;2023-04-28T12:21:36;101145.56;;;12.57;100.00
49030;BME280;43337;52.070;4.508;2023-04-28T12:24:16;101145.63;;;12.56;100.00
49030;BME280;43337;52.070;4.508;2023-04-28T12:26:42;101142.13;;;12.55;100.00
49030;BME280;43337;52.070;4.508;2023-04-28T12:29:07;101137.56;;;12.59;100.00
49030;BME280;43337;52.070;4.508;2023-04-28T12:31:49;101143.56;;;12.62;100.00
49030;BME280;43337;52.070;4.508;2023-04-28T12:34:17;101150.19;;;12.71;100.00
49030;BME280;43337;52.070;4.508;2023-04-28T12:36:42;101147.56;;;12.71;100.00
49030;BME280;43337;52.070;4.508;2023-04-28T12:39:13;101143.13;;;12.71;100.00
49030;BME280;43337;52.070;4.508;2023-04-28T12:41:40;101142.13;;;12.74;100.00
49030;BME280;43337;52.070;4.508;2023-04-28T12:44:06;101136.22;;;12.69;100.00
49030;BME280;43337;52.070;4.508;2023-04-28T12:46:31;101147.28;;;12.77;100.00
49030;BME280;43337;52.070;4.508;2023-04-28T12:48:57;101148.72;;;12.84;100.00
49030;BME280;43337;52.070;4.508;2023-04-28T12:51:22;101156.66;;;12.84;100.00
49030;BME280;43337;52.070;4.508;2023-04-28T12:53:48;101162.84;;;12.83;100.00
49030;BME280;43337;52.070;4.508;2023-04-28T12:56:13;101155.84;;;12.82;100.00
49030;BME280;43337;52.070;4.508;2023-04-28T12:58:39;101154.13;;;12.81;100.00
49030;BME280;43337;52.070;4.508;2023-04-28T13:01:05;101157.50;;;12.85;100.00
49030;BME280;43337;52.070;4.508;2023-04-28T13:03:30;101170.41;;;12.91;100.00
49030;BME280;43337;52.070;4.508;2023-04-28T13:05:56;101168.69;;;12.90;100.00
49030;BME280;43337;52.070;4.508;2023-04-28T13:08:21;101168.06;;;12.85;100.00
49030;BME280;43337;52.070;4.508;2023-04-28T13:10:46;101170.63;;;12.86;100.00
49030;BME280;43337;52.070;4.508;2023-04-28T13:13:12;101179.50;;;12.85;100.00
49030;BME280;43337;52.070;4.508;2023-04-28T13:15:37;101170.34;;;12.74;100.00
49030;BME280;43337;52.070;4.508;2023-04-28T13:18:03;101177.97;;;12.80;100.00